MiSS Darian — WDC7675 — position and weather

sailwx.info

Track history (hours):
 
Tides and Currents Weather Stations Pressure Air Temp Water Temp Dewpoint Dewpoint Depression Visibility Wind Speed Wind Dir Waves Ship Positions

MiSS Darian

Owner: D&S Marine Service,LLC., Houma, LA. More information available from US FCC via Universal Licensing System and Coast Guard Vessel Documentation Center.

Last reported at 2018-Jul-18 18:29 UTC. Time now 2018-Jul-18 18:30 UTC.
Position N 29°36' W 095°01'.

Length 80 m; draft 2.9 m.

Type: . MMSI: 367075020.

Date/timePositionNaut miles runAvg speedWind from/ knotsBaromVisibWave heightAir tempDewpointWater temp
2018-Jul-18 18:29N 29°36' W 095°01'0 0.0
2018-Jul-18 17:59N 29°36' W 095°01'0 0.0
2018-Jul-18 17:29N 29°36' W 095°01'0 0.0
2018-Jul-18 16:59N 29°36' W 095°01'0 0.0
2018-Jul-18 16:29N 29°36' W 095°01'0 0.0
2018-Jul-18 15:59N 29°36' W 095°01'0 0.0
2018-Jul-18 15:29N 29°36' W 095°01'0 0.0
2018-Jul-18 14:59N 29°36' W 095°01'0 0.0
2018-Jul-18 14:29N 29°36' W 095°01'0 0.0
2018-Jul-18 13:29N 29°36' W 095°01'0 0.0
2018-Jul-18 12:56N 29°36' W 095°01'0 0.0
2018-Jul-18 12:29N 29°36' W 095°01'0 0.0
2018-Jul-18 11:59N 29°36' W 095°01'0 0.0
2018-Jul-18 11:29N 29°36' W 095°01'0 0.0
2018-Jul-18 10:26N 29°36' W 095°01'0 0.2
2018-Jul-18 10:01N 29°37' W 095°01'0 0.1
2018-Jul-18 09:21N 29°36' W 095°01'0 0.1
2018-Jul-18 09:00N 29°36' W 095°01'0 0.1
2018-Jul-18 08:30N 29°36' W 095°01'0 0.1
2018-Jul-18 08:00N 29°36' W 095°01'0 0.0
2018-Jul-18 07:30N 29°36' W 095°01'0 0.0
2018-Jul-18 07:00N 29°36' W 095°01'0 0.0
2018-Jul-18 06:27N 29°36' W 095°01'0 0.0
2018-Jul-18 06:00N 29°36' W 095°01'0 0.0
2018-Jul-18 05:30N 29°36' W 095°01'0 0.0
2018-Jul-18 05:00N 29°36' W 095°01'0 0.0
2018-Jul-18 04:24N 29°36' W 095°01'0 0.0
2018-Jul-18 04:00N 29°36' W 095°01'0 0.0
2018-Jul-18 03:30N 29°36' W 095°01'0 0.0
2018-Jul-18 03:00N 29°36' W 095°01'0 0.0
2018-Jul-18 02:30N 29°36' W 095°01'0 0.0
2018-Jul-18 02:00N 29°36' W 095°01'0 0.1
2018-Jul-18 01:30N 29°36' W 095°01'0 0.0
2018-Jul-18 01:00N 29°36' W 095°01'0 0.0
2018-Jul-18 00:30N 29°36' W 095°01'0 0.0
2018-Jul-18 00:00N 29°36' W 095°01'0 0.0
2018-Jul-17 23:30N 29°36' W 095°01'0 0.0
2018-Jul-17 23:00N 29°36' W 095°01'0 0.0
2018-Jul-17 22:30N 29°36' W 095°01'0 0.0
2018-Jul-17 22:00N 29°36' W 095°01'0 0.0
2018-Jul-17 21:30N 29°36' W 095°01'0 0.0
2018-Jul-17 21:00N 29°36' W 095°01'0 0.0
2018-Jul-17 20:30N 29°36' W 095°01'0 0.6
2018-Jul-17 20:00N 29°37' W 095°01'2 3.7
2018-Jul-17 19:30N 29°37' W 094°59'2 4.2
2018-Jul-17 18:59N 29°39' W 094°58'3 6.3
2018-Jul-17 18:30N 29°42' W 094°60'3 5.5
2018-Jul-17 17:56N 29°44' W 095°02'4 0.9
2018-Jul-17 13:53N 29°46' W 095°06'0 0.0
2018-Jul-17 13:05N 29°46' W 095°06'0 0.0
2018-Jul-17 12:47N 29°46' W 095°06'0 0.0
2018-Jul-17 12:29N 29°46' W 095°06'0 0.2
2018-Jul-17 11:49N 29°46' W 095°06'0 0.0
2018-Jul-17 11:28N 29°46' W 095°06'0 0.0
2018-Jul-17 10:58N 29°46' W 095°06'0 0.0
2018-Jul-17 10:28N 29°46' W 095°06'0 0.0
2018-Jul-17 09:46N 29°46' W 095°06'0 0.0
2018-Jul-17 09:22N 29°46' W 095°06'0 0.0
2018-Jul-17 08:46N 29°46' W 095°06'0 0.0
2018-Jul-17 08:25N 29°46' W 095°06'0 0.0
2018-Jul-17 07:58N 29°46' W 095°06'0 0.0
2018-Jul-17 07:28N 29°46' W 095°06'0 0.0
2018-Jul-17 06:58N 29°46' W 095°06'0 0.0
2018-Jul-17 06:28N 29°46' W 095°06'0 0.0
2018-Jul-17 05:58N 29°46' W 095°06'0 0.0
2018-Jul-17 05:25N 29°46' W 095°06'0 0.0
2018-Jul-17 04:58N 29°46' W 095°06'0 0.0
2018-Jul-17 04:28N 29°46' W 095°06'0 0.0
2018-Jul-17 03:58N 29°46' W 095°06'0 0.0
2018-Jul-17 03:25N 29°46' W 095°06'0 0.0
2018-Jul-17 02:46N 29°46' W 095°06'0 0.0
2018-Jul-17 02:19N 29°46' W 095°06'0 0.0
2018-Jul-17 01:34N 29°46' W 095°06'0 0.0
2018-Jul-17 01:25N 29°46' W 095°06'0 0.0
2018-Jul-16 14:20N 29°46' W 095°06'0 0.0
2018-Jul-16 13:53N 29°46' W 095°06'0 0.0
2018-Jul-16 13:26N 29°46' W 095°06'0 0.0
2018-Jul-16 12:32N 29°46' W 095°06'0 0.0
2018-Jul-16 12:29N 29°46' W 095°06'0 0.0
2018-Jul-16 11:50N 29°46' W 095°06'0 0.0
2018-Jul-16 11:29N 29°46' W 095°06'0 0.0
2018-Jul-16 09:26N 29°46' W 095°06'0 0.0
2018-Jul-16 08:35N 29°46' W 095°06'0 0.0
2018-Jul-16 08:26N 29°46' W 095°06'0 0.0
2018-Jul-16 07:47N 29°46' W 095°06'0 0.0
2018-Jul-16 07:23N 29°46' W 095°06'0 0.0
2018-Jul-16 06:44N 29°46' W 095°06'0 0.0
2018-Jul-16 03:47N 29°46' W 095°06'0 0.0
2018-Jul-16 03:29N 29°46' W 095°06'0 0.0
2018-Jul-15 16:05N 29°46' W 095°06'0 0.0
2018-Jul-15 13:26N 29°46' W 095°06'0 0.0
2018-Jul-15 02:38N 29°46' W 095°06'0 0.0
2018-Jul-14 12:48N 29°46' W 095°06'0 0.0
2018-Jul-14 09:48N 29°46' W 095°06'0 0.0
2018-Jul-14 09:30N 29°46' W 095°06'0 0.3
2018-Jul-14 08:07N 29°45' W 095°06'0 0.0
2018-Jul-13 22:24N 29°45' W 095°06'0 0.0
2018-Jul-13 14:54N 29°46' W 095°06'0 0.8
2018-Jul-13 14:28N 29°46' W 095°05'2 2.3
2018-Jul-13 13:28N 29°44' W 095°03'3 5.8
2018-Jul-13 12:59N 29°42' W 095°01'3 6.6
2018-Jul-13 12:30N 29°40' W 094°59'3 6.9
2018-Jul-13 12:00N 29°37' W 094°57'3 6.8
2018-Jul-13 11:30N 29°34' W 094°55'4 7.3
2018-Jul-13 11:00N 29°31' W 094°53'5 8.0
2018-Jul-13 10:25N 29°27' W 094°50'4 9.4
2018-Jul-13 10:00N 29°23' W 094°49'2 4.3
2018-Jul-13 09:30N 29°23' W 094°46'2 4.1
2018-Jul-13 09:00N 29°24' W 094°44'2 3.7
2018-Jul-13 08:30N 29°26' W 094°43'0 0.2
2018-Jul-13 07:55N 29°26' W 094°43'0 0.0
2018-Jul-13 07:30N 29°26' W 094°43'0 0.0
2018-Jul-13 06:56N 29°26' W 094°43'0 0.0
2018-Jul-13 06:31N 29°26' W 094°43'0 0.0
2018-Jul-13 06:00N 29°26' W 094°43'0 0.2
2018-Jul-13 05:30N 29°26' W 094°43'0 0.5
2018-Jul-13 05:00N 29°26' W 094°43'2 3.2
2018-Jul-13 04:30N 29°27' W 094°41'3 6.3
2018-Jul-13 03:56N 29°28' W 094°38'8 6.2
2018-Jul-13 02:43N 29°31' W 094°30'1 4.9
2018-Jul-13 02:26N 29°32' W 094°29'3 5.8
2018-Jul-13 01:53N 29°34' W 094°25'2 4.9
2018-Jul-13 01:22N 29°36' W 094°23'2 6.0
2018-Jul-13 01:00N 29°37' W 094°21'3 6.1
2018-Jul-13 00:30N 29°38' W 094°18'3 6.0
2018-Jul-13 00:00N 29°40' W 094°15'3 5.9
2018-Jul-12 23:31N 29°41' W 094°12'3 5.8
2018-Jul-12 23:00N 29°42' W 094°09'3 5.9
2018-Jul-12 22:30N 29°44' W 094°06'3 6.0
2018-Jul-12 22:01N 29°46' W 094°03'3 6.2
2018-Jul-12 21:31N 29°48' W 094°01'2 5.0
2018-Jul-12 21:01N 29°49' W 093°59'3 5.0
2018-Jul-12 20:31N 29°51' W 093°57'3 6.4
2018-Jul-12 20:01N 29°54' W 093°54'3 6.4
2018-Jul-12 19:31N 29°56' W 093°52'2 3.3
2018-Jul-12 18:47N 29°58' W 093°51'0 0.0
2018-Jul-12 18:29N 29°58' W 093°51'0 0.0
2018-Jul-12 17:59N 29°58' W 093°51'0 0.0
2018-Jul-12 17:29N 29°58' W 093°51'0 0.0
2018-Jul-12 16:59N 29°58' W 093°51'0 0.3
2018-Jul-12 16:30N 29°58' W 093°51'0 0.0
2018-Jul-12 16:00N 29°58' W 093°51'0 0.3
2018-Jul-12 15:30N 29°58' W 093°51'0 0.3
2018-Jul-12 15:01N 29°58' W 093°51'3 6.3
2018-Jul-12 14:30N 29°59' W 093°54'4 7.0
2018-Jul-12 14:00N 30°01' W 093°58'3 5.7
2018-Jul-12 13:28N 30°01' W 094°02'0 0.1
2018-Jul-12 13:00N 30°01' W 094°02'0 0.0
2018-Jul-12 12:30N 30°01' W 094°02'0 0.0
2018-Jul-12 12:00N 30°01' W 094°02'0 0.0
2018-Jul-12 11:27N 30°01' W 094°02'0 0.0
2018-Jul-12 11:00N 30°01' W 094°02'0 0.0
2018-Jul-12 10:30N 30°01' W 094°02'0 0.0
2018-Jul-12 10:00N 30°01' W 094°02'0 0.0
2018-Jul-12 09:30N 30°01' W 094°02'0 0.0
2018-Jul-12 09:00N 30°01' W 094°02'0 0.0
2018-Jul-12 08:30N 30°01' W 094°02'0 0.0
2018-Jul-12 08:00N 30°01' W 094°02'0 0.0
2018-Jul-12 07:30N 30°01' W 094°02'0 0.0
2018-Jul-12 07:00N 30°01' W 094°02'0 0.0
2018-Jul-12 06:30N 30°01' W 094°02'0 0.0
2018-Jul-12 06:00N 30°01' W 094°02'0 0.0
2018-Jul-12 05:30N 30°01' W 094°02'0 0.0
2018-Jul-12 05:00N 30°01' W 094°02'0 0.0
2018-Jul-12 04:30N 30°01' W 094°02'0 0.0
2018-Jul-12 04:00N 30°01' W 094°02'0 0.0
2018-Jul-12 03:30N 30°01' W 094°02'0 0.0
2018-Jul-12 03:00N 30°01' W 094°02'0 0.0
2018-Jul-12 02:30N 30°01' W 094°02'0 0.0
2018-Jul-12 01:57N 30°01' W 094°02'0 0.0
2018-Jul-12 01:27N 30°01' W 094°02'0 0.0
2018-Jul-12 01:00N 30°01' W 094°02'0 0.0
2018-Jul-12 00:30N 30°01' W 094°02'0 0.0
2018-Jul-12 00:00N 30°01' W 094°02'0 0.0
2018-Jul-11 23:30N 30°01' W 094°02'0 0.0
2018-Jul-11 23:00N 30°01' W 094°02'0 0.0
2018-Jul-11 22:30N 30°01' W 094°02'0 0.0
2018-Jul-11 22:00N 30°01' W 094°02'0 0.0
2018-Jul-11 21:30N 30°01' W 094°02'0 0.0
2018-Jul-11 21:00N 30°01' W 094°02'0 0.0
2018-Jul-11 20:30N 30°01' W 094°02'0 0.1
2018-Jul-11 20:00N 30°01' W 094°02'2 4.8
2018-Jul-11 19:30N 30°01' W 093°59'4 7.0
2018-Jul-11 19:00N 29°59' W 093°55'4 7.8
2018-Jul-11 18:30N 29°58' W 093°51'0 0.1
2018-Jul-11 18:00N 29°58' W 093°51'0 0.0
2018-Jul-11 17:30N 29°58' W 093°51'0 0.0
2018-Jul-11 17:00N 29°58' W 093°51'0 0.0
2018-Jul-11 16:30N 29°58' W 093°51'0 0.0
2018-Jul-11 16:00N 29°58' W 093°51'0 0.0
2018-Jul-11 15:30N 29°58' W 093°51'0 0.0
2018-Jul-11 15:00N 29°58' W 093°51'0 0.0
2018-Jul-11 14:30N 29°58' W 093°51'0 0.0
2018-Jul-11 14:00N 29°58' W 093°51'0 0.0
2018-Jul-11 13:30N 29°58' W 093°51'0 0.0
2018-Jul-11 13:00N 29°58' W 093°51'0 0.0
2018-Jul-11 12:30N 29°58' W 093°51'0 0.0
2018-Jul-11 12:00N 29°58' W 093°51'0 0.0
2018-Jul-11 11:30N 29°58' W 093°51'0 0.0
2018-Jul-11 11:00N 29°58' W 093°51'0 0.1
2018-Jul-11 10:30N 29°58' W 093°51'0 0.7
2018-Jul-11 10:00N 29°58' W 093°51'3 5.2
2018-Jul-11 09:30N 29°59' W 093°54'3 6.2
2018-Jul-11 09:00N 30°00' W 093°57'3 5.5
2018-Jul-11 08:30N 30°01' W 094°00'1 2.2
2018-Jul-11 08:00N 30°01' W 094°02'0 0.0
2018-Jul-11 07:30N 30°01' W 094°02'0 0.0
2018-Jul-11 07:00N 30°01' W 094°02'0 0.0
2018-Jul-11 06:30N 30°01' W 094°02'0 0.0
2018-Jul-11 06:00N 30°01' W 094°02'0 0.1
2018-Jul-11 05:30N 30°01' W 094°02'0 0.0
2018-Jul-11 05:00N 30°01' W 094°02'0 0.0
2018-Jul-11 04:30N 30°01' W 094°02'0 0.0
2018-Jul-11 04:00N 30°01' W 094°02'0 0.0
2018-Jul-11 03:30N 30°01' W 094°02'0 0.0
2018-Jul-11 03:00N 30°01' W 094°02'0 0.0
2018-Jul-11 02:30N 30°01' W 094°02'0 0.0
2018-Jul-11 02:00N 30°01' W 094°02'0 0.0
2018-Jul-11 01:30N 30°01' W 094°02'0 0.0
2018-Jul-11 01:00N 30°01' W 094°02'0 0.0
2018-Jul-11 00:30N 30°01' W 094°02'0 0.0
2018-Jul-11 00:00N 30°01' W 094°02'0 0.0
2018-Jul-10 23:30N 30°01' W 094°02'0 0.0
2018-Jul-10 23:00N 30°01' W 094°02'0 0.0
2018-Jul-10 22:30N 30°01' W 094°02'0 0.0
2018-Jul-10 22:00N 30°01' W 094°02'0 0.0
2018-Jul-10 21:30N 30°01' W 094°02'0 0.0
2018-Jul-10 21:00N 30°01' W 094°02'0 0.2
2018-Jul-10 20:30N 30°01' W 094°02'1 2.4
2018-Jul-10 20:00N 30°03' W 094°02'1 2.7
2018-Jul-10 19:30N 30°01' W 094°02'1 1.8
2018-Jul-10 19:00N 30°01' W 094°01'4 7.3
2018-Jul-10 18:30N 29°60' W 093°57'4 7.7
2018-Jul-10 18:00N 29°59' W 093°52'1 3.0
2018-Jul-10 17:30N 29°58' W 093°51'0 0.5
2018-Jul-10 17:00N 29°58' W 093°51'0 0.1
2018-Jul-10 16:30N 29°58' W 093°51'1 1.9
2018-Jul-10 16:00N 29°58' W 093°52'0 0.0
2018-Jul-10 15:30N 29°58' W 093°52'0 0.6
2018-Jul-10 15:00N 29°58' W 093°51'1 1.1
2018-Jul-10 14:30N 29°58' W 093°51'0 0.1
2018-Jul-10 14:00N 29°58' W 093°51'0 0.5
2018-Jul-10 13:30N 29°58' W 093°51'0 0.0
2018-Jul-10 13:00N 29°58' W 093°51'0 0.0
2018-Jul-10 12:30N 29°58' W 093°51'0 0.0
2018-Jul-10 12:00N 29°58' W 093°51'0 0.0
2018-Jul-10 11:30N 29°58' W 093°51'0 0.0
2018-Jul-10 11:00N 29°58' W 093°51'0 0.0
2018-Jul-10 10:30N 29°58' W 093°51'0 0.0
2018-Jul-10 10:00N 29°58' W 093°51'0 0.0
2018-Jul-10 09:30N 29°58' W 093°51'0 0.0
2018-Jul-10 09:00N 29°58' W 093°51'0 0.0
2018-Jul-10 08:30N 29°58' W 093°51'0 0.0
2018-Jul-10 08:00N 29°58' W 093°51'0 0.0
2018-Jul-10 07:30N 29°58' W 093°51'0 0.0
2018-Jul-10 07:00N 29°58' W 093°51'0 0.0
2018-Jul-10 06:30N 29°58' W 093°51'0 0.0
2018-Jul-10 06:00N 29°58' W 093°51'0 0.0
2018-Jul-10 05:30N 29°58' W 093°51'0 0.0
2018-Jul-10 05:00N 29°58' W 093°51'0 0.0
2018-Jul-10 04:30N 29°58' W 093°51'0 0.3
2018-Jul-10 04:00N 29°58' W 093°51'3 6.8
2018-Jul-10 03:30N 29°59' W 093°55'3 6.9
2018-Jul-10 03:00N 30°01' W 093°58'3 6.9
2018-Jul-10 02:30N 30°02' W 094°02'3 6.1
2018-Jul-10 02:00N 30°04' W 094°03'0 0.1
2018-Jul-10 01:30N 30°04' W 094°04'2 4.0
2018-Jul-10 01:00N 30°03' W 094°02'3 6.6
2018-Jul-10 00:30N 30°01' W 093°59'3 6.3
2018-Jul-10 00:00N 29°59' W 093°56'3 5.7
2018-Jul-09 23:30N 29°59' W 093°53'2 3.1
2018-Jul-09 23:00N 29°58' W 093°51'0 0.4
2018-Jul-09 22:31N 29°58' W 093°51'0 0.2
2018-Jul-09 21:59N 29°58' W 093°51'0 0.0
2018-Jul-09 21:29N 29°58' W 093°51'0 0.0
2018-Jul-09 20:59N 29°58' W 093°51'0 0.0
2018-Jul-09 20:29N 29°58' W 093°51'0 0.0
2018-Jul-09 19:59N 29°58' W 093°51'0 0.0
2018-Jul-09 19:29N 29°58' W 093°51'0 0.0
2018-Jul-09 18:59N 29°58' W 093°51'0 0.0
2018-Jul-09 18:29N 29°58' W 093°51'0 0.0
2018-Jul-09 17:59N 29°58' W 093°51'0 0.0
2018-Jul-09 17:29N 29°58' W 093°51'0 0.0
2018-Jul-09 17:00N 29°58' W 093°51'0 0.0
2018-Jul-09 16:30N 29°58' W 093°51'0 0.0
2018-Jul-09 16:00N 29°58' W 093°51'0 0.0
2018-Jul-09 15:30N 29°58' W 093°51'0 0.0
2018-Jul-09 15:00N 29°58' W 093°51'0 0.0
2018-Jul-09 14:30N 29°58' W 093°51'0 0.0
2018-Jul-09 14:00N 29°58' W 093°51'0 0.0
2018-Jul-09 13:30N 29°58' W 093°51'0 0.0
2018-Jul-09 13:00N 29°58' W 093°51'0 0.0
2018-Jul-09 12:30N 29°58' W 093°51'0 0.0
2018-Jul-09 12:00N 29°58' W 093°51'0 0.0
2018-Jul-09 11:30N 29°58' W 093°51'0 0.0
2018-Jul-09 11:00N 29°58' W 093°51'0 0.0
2018-Jul-09 10:30N 29°58' W 093°51'0 0.0
2018-Jul-09 10:00N 29°58' W 093°51'0 0.0
2018-Jul-09 09:30N 29°58' W 093°51'0 0.0
2018-Jul-09 09:01N 29°58' W 093°51'0 0.0
2018-Jul-09 08:30N 29°58' W 093°51'0 0.0
2018-Jul-09 08:00N 29°58' W 093°51'0 0.0
2018-Jul-09 07:30N 29°58' W 093°51'0 0.0
2018-Jul-09 07:00N 29°58' W 093°51'0 0.0
2018-Jul-09 06:30N 29°58' W 093°51'0 0.0
2018-Jul-09 06:00N 29°58' W 093°51'0 0.0
2018-Jul-09 05:30N 29°58' W 093°51'0 0.2
2018-Jul-09 05:00N 29°58' W 093°51'0 0.3
2018-Jul-09 04:30N 29°58' W 093°51'3 6.9
2018-Jul-09 04:00N 29°60' W 093°47'3 6.8
2018-Jul-09 03:30N 30°02' W 093°44'1 2.5
2018-Jul-09 03:00N 30°03' W 093°44'0 0.1
2018-Jul-09 02:30N 30°03' W 093°44'1 1.7
2018-Jul-09 02:00N 30°03' W 093°44'3 6.3
2018-Jul-09 01:30N 30°00' W 093°46'3 6.5
2018-Jul-09 01:00N 29°59' W 093°50'1 2.1
2018-Jul-09 00:30N 29°58' W 093°51'0 0.0
2018-Jul-09 00:00N 29°58' W 093°51'0 0.0
2018-Jul-08 23:30N 29°58' W 093°51'0 0.0
2018-Jul-08 23:01N 29°58' W 093°51'0 0.1
2018-Jul-08 22:31N 29°58' W 093°51'0 0.1
2018-Jul-08 21:59N 29°58' W 093°51'0 0.0
2018-Jul-08 21:29N 29°58' W 093°51'0 0.0
2018-Jul-08 20:59N 29°58' W 093°51'0 0.0
2018-Jul-08 20:29N 29°58' W 093°51'0 0.0
2018-Jul-08 19:58N 29°58' W 093°51'0 0.0
2018-Jul-08 19:28N 29°58' W 093°51'0 0.0
2018-Jul-08 18:58N 29°58' W 093°51'  
Track history (hours):
 
Tides and Currents Weather Stations Pressure Air Temp Water Temp Dewpoint Dewpoint Depression Visibility Wind Speed Wind Dir Waves Ship Positions

MiSS Darian

Owner: D&S Marine Service,LLC., Houma, LA. More information available from US FCC via Universal Licensing System and Coast Guard Vessel Documentation Center.

Last reported at 2018-Jul-18 18:29 UTC. Time now 2018-Jul-18 18:30 UTC.
Position N 29°36' W 095°01'.

Length 80 m; draft 2.9 m.

Type: . MMSI: 367075020.

Date/timePositionNaut miles runAvg speedWind from/ knotsBaromVisibWave heightAir tempDewpointWater temp
2018-Jul-18 18:29N 29°36' W 095°01'0 0.0
2018-Jul-18 17:59N 29°36' W 095°01'0 0.0
2018-Jul-18 17:29N 29°36' W 095°01'0 0.0
2018-Jul-18 16:59N 29°36' W 095°01'0 0.0
2018-Jul-18 16:29N 29°36' W 095°01'0 0.0
2018-Jul-18 15:59N 29°36' W 095°01'0 0.0
2018-Jul-18 15:29N 29°36' W 095°01'0 0.0
2018-Jul-18 14:59N 29°36' W 095°01'0 0.0
2018-Jul-18 14:29N 29°36' W 095°01'0 0.0
2018-Jul-18 13:29N 29°36' W 095°01'0 0.0
2018-Jul-18 12:56N 29°36' W 095°01'0 0.0
2018-Jul-18 12:29N 29°36' W 095°01'0 0.0
2018-Jul-18 11:59N 29°36' W 095°01'0 0.0
2018-Jul-18 11:29N 29°36' W 095°01'0 0.0
2018-Jul-18 10:26N 29°36' W 095°01'0 0.2
2018-Jul-18 10:01N 29°37' W 095°01'0 0.1
2018-Jul-18 09:21N 29°36' W 095°01'0 0.1
2018-Jul-18 09:00N 29°36' W 095°01'0 0.1
2018-Jul-18 08:30N 29°36' W 095°01'0 0.1
2018-Jul-18 08:00N 29°36' W 095°01'0 0.0
2018-Jul-18 07:30N 29°36' W 095°01'0 0.0
2018-Jul-18 07:00N 29°36' W 095°01'0 0.0
2018-Jul-18 06:27N 29°36' W 095°01'0 0.0
2018-Jul-18 06:00N 29°36' W 095°01'0 0.0
2018-Jul-18 05:30N 29°36' W 095°01'0 0.0
2018-Jul-18 05:00N 29°36' W 095°01'0 0.0
2018-Jul-18 04:24N 29°36' W 095°01'0 0.0
2018-Jul-18 04:00N 29°36' W 095°01'0 0.0
2018-Jul-18 03:30N 29°36' W 095°01'0 0.0
2018-Jul-18 03:00N 29°36' W 095°01'0 0.0
2018-Jul-18 02:30N 29°36' W 095°01'0 0.0
2018-Jul-18 02:00N 29°36' W 095°01'0 0.1
2018-Jul-18 01:30N 29°36' W 095°01'0 0.0
2018-Jul-18 01:00N 29°36' W 095°01'0 0.0
2018-Jul-18 00:30N 29°36' W 095°01'0 0.0
2018-Jul-18 00:00N 29°36' W 095°01'0 0.0
2018-Jul-17 23:30N 29°36' W 095°01'0 0.0
2018-Jul-17 23:00N 29°36' W 095°01'0 0.0
2018-Jul-17 22:30N 29°36' W 095°01'0 0.0
2018-Jul-17 22:00N 29°36' W 095°01'0 0.0
2018-Jul-17 21:30N 29°36' W 095°01'0 0.0
2018-Jul-17 21:00N 29°36' W 095°01'0 0.0
2018-Jul-17 20:30N 29°36' W 095°01'0 0.6
2018-Jul-17 20:00N 29°37' W 095°01'2 3.7
2018-Jul-17 19:30N 29°37' W 094°59'2 4.2
2018-Jul-17 18:59N 29°39' W 094°58'3 6.3
2018-Jul-17 18:30N 29°42' W 094°60'3 5.5
2018-Jul-17 17:56N 29°44' W 095°02'4 0.9
2018-Jul-17 13:53N 29°46' W 095°06'0 0.0
2018-Jul-17 13:05N 29°46' W 095°06'0 0.0
2018-Jul-17 12:47N 29°46' W 095°06'0 0.0
2018-Jul-17 12:29N 29°46' W 095°06'0 0.2
2018-Jul-17 11:49N 29°46' W 095°06'0 0.0
2018-Jul-17 11:28N 29°46' W 095°06'0 0.0
2018-Jul-17 10:58N 29°46' W 095°06'0 0.0
2018-Jul-17 10:28N 29°46' W 095°06'0 0.0
2018-Jul-17 09:46N 29°46' W 095°06'0 0.0
2018-Jul-17 09:22N 29°46' W 095°06'0 0.0
2018-Jul-17 08:46N 29°46' W 095°06'0 0.0
2018-Jul-17 08:25N 29°46' W 095°06'0 0.0
2018-Jul-17 07:58N 29°46' W 095°06'0 0.0
2018-Jul-17 07:28N 29°46' W 095°06'0 0.0
2018-Jul-17 06:58N 29°46' W 095°06'0 0.0
2018-Jul-17 06:28N 29°46' W 095°06'0 0.0
2018-Jul-17 05:58N 29°46' W 095°06'0 0.0
2018-Jul-17 05:25N 29°46' W 095°06'0 0.0
2018-Jul-17 04:58N 29°46' W 095°06'0 0.0
2018-Jul-17 04:28N 29°46' W 095°06'0 0.0
2018-Jul-17 03:58N 29°46' W 095°06'0 0.0
2018-Jul-17 03:25N 29°46' W 095°06'0 0.0
2018-Jul-17 02:46N 29°46' W 095°06'0 0.0
2018-Jul-17 02:19N 29°46' W 095°06'0 0.0
2018-Jul-17 01:34N 29°46' W 095°06'0 0.0
2018-Jul-17 01:25N 29°46' W 095°06'0 0.0
2018-Jul-16 14:20N 29°46' W 095°06'0 0.0
2018-Jul-16 13:53N 29°46' W 095°06'0 0.0
2018-Jul-16 13:26N 29°46' W 095°06'0 0.0
2018-Jul-16 12:32N 29°46' W 095°06'0 0.0
2018-Jul-16 12:29N 29°46' W 095°06'0 0.0
2018-Jul-16 11:50N 29°46' W 095°06'0 0.0
2018-Jul-16 11:29N 29°46' W 095°06'0 0.0
2018-Jul-16 09:26N 29°46' W 095°06'0 0.0
2018-Jul-16 08:35N 29°46' W 095°06'0 0.0
2018-Jul-16 08:26N 29°46' W 095°06'0 0.0
2018-Jul-16 07:47N 29°46' W 095°06'0 0.0
2018-Jul-16 07:23N 29°46' W 095°06'0 0.0
2018-Jul-16 06:44N 29°46' W 095°06'0 0.0
2018-Jul-16 03:47N 29°46' W 095°06'0 0.0
2018-Jul-16 03:29N 29°46' W 095°06'0 0.0
2018-Jul-15 16:05N 29°46' W 095°06'0 0.0
2018-Jul-15 13:26N 29°46' W 095°06'0 0.0
2018-Jul-15 02:38N 29°46' W 095°06'0 0.0
2018-Jul-14 12:48N 29°46' W 095°06'0 0.0
2018-Jul-14 09:48N 29°46' W 095°06'0 0.0
2018-Jul-14 09:30N 29°46' W 095°06'0 0.3
2018-Jul-14 08:07N 29°45' W 095°06'0 0.0
2018-Jul-13 22:24N 29°45' W 095°06'0 0.0
2018-Jul-13 14:54N 29°46' W 095°06'0 0.8
2018-Jul-13 14:28N 29°46' W 095°05'2 2.3
2018-Jul-13 13:28N 29°44' W 095°03'3 5.8
2018-Jul-13 12:59N 29°42' W 095°01'3 6.6
2018-Jul-13 12:30N 29°40' W 094°59'3 6.9
2018-Jul-13 12:00N 29°37' W 094°57'3 6.8
2018-Jul-13 11:30N 29°34' W 094°55'4 7.3
2018-Jul-13 11:00N 29°31' W 094°53'5 8.0
2018-Jul-13 10:25N 29°27' W 094°50'4 9.4
2018-Jul-13 10:00N 29°23' W 094°49'2 4.3
2018-Jul-13 09:30N 29°23' W 094°46'2 4.1
2018-Jul-13 09:00N 29°24' W 094°44'2 3.7
2018-Jul-13 08:30N 29°26' W 094°43'0 0.2
2018-Jul-13 07:55N 29°26' W 094°43'0 0.0
2018-Jul-13 07:30N 29°26' W 094°43'0 0.0
2018-Jul-13 06:56N 29°26' W 094°43'0 0.0
2018-Jul-13 06:31N 29°26' W 094°43'0 0.0
2018-Jul-13 06:00N 29°26' W 094°43'0 0.2
2018-Jul-13 05:30N 29°26' W 094°43'0 0.5
2018-Jul-13 05:00N 29°26' W 094°43'2 3.2
2018-Jul-13 04:30N 29°27' W 094°41'3 6.3
2018-Jul-13 03:56N 29°28' W 094°38'8 6.2
2018-Jul-13 02:43N 29°31' W 094°30'1 4.9
2018-Jul-13 02:26N 29°32' W 094°29'3 5.8
2018-Jul-13 01:53N 29°34' W 094°25'2 4.9
2018-Jul-13 01:22N 29°36' W 094°23'2 6.0
2018-Jul-13 01:00N 29°37' W 094°21'3 6.1
2018-Jul-13 00:30N 29°38' W 094°18'3 6.0
2018-Jul-13 00:00N 29°40' W 094°15'3 5.9
2018-Jul-12 23:31N 29°41' W 094°12'3 5.8
2018-Jul-12 23:00N 29°42' W 094°09'3 5.9
2018-Jul-12 22:30N 29°44' W 094°06'3 6.0
2018-Jul-12 22:01N 29°46' W 094°03'3 6.2
2018-Jul-12 21:31N 29°48' W 094°01'2 5.0
2018-Jul-12 21:01N 29°49' W 093°59'3 5.0
2018-Jul-12 20:31N 29°51' W 093°57'3 6.4
2018-Jul-12 20:01N 29°54' W 093°54'3 6.4
2018-Jul-12 19:31N 29°56' W 093°52'2 3.3
2018-Jul-12 18:47N 29°58' W 093°51'0 0.0
2018-Jul-12 18:29N 29°58' W 093°51'0 0.0
2018-Jul-12 17:59N 29°58' W 093°51'0 0.0
2018-Jul-12 17:29N 29°58' W 093°51'0 0.0
2018-Jul-12 16:59N 29°58' W 093°51'0 0.3
2018-Jul-12 16:30N 29°58' W 093°51'0 0.0
2018-Jul-12 16:00N 29°58' W 093°51'0 0.3
2018-Jul-12 15:30N 29°58' W 093°51'0 0.3
2018-Jul-12 15:01N 29°58' W 093°51'3 6.3
2018-Jul-12 14:30N 29°59' W 093°54'4 7.0
2018-Jul-12 14:00N 30°01' W 093°58'3 5.7
2018-Jul-12 13:28N 30°01' W 094°02'0 0.1
2018-Jul-12 13:00N 30°01' W 094°02'0 0.0
2018-Jul-12 12:30N 30°01' W 094°02'0 0.0
2018-Jul-12 12:00N 30°01' W 094°02'0 0.0
2018-Jul-12 11:27N 30°01' W 094°02'0 0.0
2018-Jul-12 11:00N 30°01' W 094°02'0 0.0
2018-Jul-12 10:30N 30°01' W 094°02'0 0.0
2018-Jul-12 10:00N 30°01' W 094°02'0 0.0
2018-Jul-12 09:30N 30°01' W 094°02'0 0.0
2018-Jul-12 09:00N 30°01' W 094°02'0 0.0
2018-Jul-12 08:30N 30°01' W 094°02'0 0.0
2018-Jul-12 08:00N 30°01' W 094°02'0 0.0
2018-Jul-12 07:30N 30°01' W 094°02'0 0.0
2018-Jul-12 07:00N 30°01' W 094°02'0 0.0
2018-Jul-12 06:30N 30°01' W 094°02'0 0.0
2018-Jul-12 06:00N 30°01' W 094°02'0 0.0
2018-Jul-12 05:30N 30°01' W 094°02'0 0.0
2018-Jul-12 05:00N 30°01' W 094°02'0 0.0
2018-Jul-12 04:30N 30°01' W 094°02'0 0.0
2018-Jul-12 04:00N 30°01' W 094°02'0 0.0
2018-Jul-12 03:30N 30°01' W 094°02'0 0.0
2018-Jul-12 03:00N 30°01' W 094°02'0 0.0
2018-Jul-12 02:30N 30°01' W 094°02'0 0.0
2018-Jul-12 01:57N 30°01' W 094°02'0 0.0
2018-Jul-12 01:27N 30°01' W 094°02'0 0.0
2018-Jul-12 01:00N 30°01' W 094°02'0 0.0
2018-Jul-12 00:30N 30°01' W 094°02'0 0.0
2018-Jul-12 00:00N 30°01' W 094°02'0 0.0
2018-Jul-11 23:30N 30°01' W 094°02'0 0.0
2018-Jul-11 23:00N 30°01' W 094°02'0 0.0
2018-Jul-11 22:30N 30°01' W 094°02'0 0.0
2018-Jul-11 22:00N 30°01' W 094°02'0 0.0
2018-Jul-11 21:30N 30°01' W 094°02'0 0.0
2018-Jul-11 21:00N 30°01' W 094°02'0 0.0
2018-Jul-11 20:30N 30°01' W 094°02'0 0.1
2018-Jul-11 20:00N 30°01' W 094°02'2 4.8
2018-Jul-11 19:30N 30°01' W 093°59'4 7.0
2018-Jul-11 19:00N 29°59' W 093°55'4 7.8
2018-Jul-11 18:30N 29°58' W 093°51'0 0.1
2018-Jul-11 18:00N 29°58' W 093°51'0 0.0
2018-Jul-11 17:30N 29°58' W 093°51'0 0.0
2018-Jul-11 17:00N 29°58' W 093°51'0 0.0
2018-Jul-11 16:30N 29°58' W 093°51'0 0.0
2018-Jul-11 16:00N 29°58' W 093°51'0 0.0
2018-Jul-11 15:30N 29°58' W 093°51'0 0.0
2018-Jul-11 15:00N 29°58' W 093°51'0 0.0
2018-Jul-11 14:30N 29°58' W 093°51'0 0.0
2018-Jul-11 14:00N 29°58' W 093°51'0 0.0
2018-Jul-11 13:30N 29°58' W 093°51'0 0.0
2018-Jul-11 13:00N 29°58' W 093°51'0 0.0
2018-Jul-11 12:30N 29°58' W 093°51'0 0.0
2018-Jul-11 12:00N 29°58' W 093°51'0 0.0
2018-Jul-11 11:30N 29°58' W 093°51'0 0.0
2018-Jul-11 11:00N 29°58' W 093°51'0 0.1
2018-Jul-11 10:30N 29°58' W 093°51'0 0.7
2018-Jul-11 10:00N 29°58' W 093°51'3 5.2
2018-Jul-11 09:30N 29°59' W 093°54'3 6.2
2018-Jul-11 09:00N 30°00' W 093°57'3 5.5
2018-Jul-11 08:30N 30°01' W 094°00'1 2.2
2018-Jul-11 08:00N 30°01' W 094°02'0 0.0
2018-Jul-11 07:30N 30°01' W 094°02'0 0.0
2018-Jul-11 07:00N 30°01' W 094°02'0 0.0
2018-Jul-11 06:30N 30°01' W 094°02'0 0.0
2018-Jul-11 06:00N 30°01' W 094°02'0 0.1
2018-Jul-11 05:30N 30°01' W 094°02'0 0.0
2018-Jul-11 05:00N 30°01' W 094°02'0 0.0
2018-Jul-11 04:30N 30°01' W 094°02'0 0.0
2018-Jul-11 04:00N 30°01' W 094°02'0 0.0
2018-Jul-11 03:30N 30°01' W 094°02'0 0.0
2018-Jul-11 03:00N 30°01' W 094°02'0 0.0
2018-Jul-11 02:30N 30°01' W 094°02'0 0.0
2018-Jul-11 02:00N 30°01' W 094°02'0 0.0
2018-Jul-11 01:30N 30°01' W 094°02'0 0.0
2018-Jul-11 01:00N 30°01' W 094°02'0 0.0
2018-Jul-11 00:30N 30°01' W 094°02'0 0.0
2018-Jul-11 00:00N 30°01' W 094°02'0 0.0
2018-Jul-10 23:30N 30°01' W 094°02'0 0.0
2018-Jul-10 23:00N 30°01' W 094°02'0 0.0
2018-Jul-10 22:30N 30°01' W 094°02'0 0.0
2018-Jul-10 22:00N 30°01' W 094°02'0 0.0
2018-Jul-10 21:30N 30°01' W 094°02'0 0.0
2018-Jul-10 21:00N 30°01' W 094°02'0 0.2
2018-Jul-10 20:30N 30°01' W 094°02'1 2.4
2018-Jul-10 20:00N 30°03' W 094°02'1 2.7
2018-Jul-10 19:30N 30°01' W 094°02'1 1.8
2018-Jul-10 19:00N 30°01' W 094°01'4 7.3
2018-Jul-10 18:30N 29°60' W 093°57'4 7.7
2018-Jul-10 18:00N 29°59' W 093°52'1 3.0
2018-Jul-10 17:30N 29°58' W 093°51'0 0.5
2018-Jul-10 17:00N 29°58' W 093°51'0 0.1
2018-Jul-10 16:30N 29°58' W 093°51'1 1.9
2018-Jul-10 16:00N 29°58' W 093°52'0 0.0
2018-Jul-10 15:30N 29°58' W 093°52'0 0.6
2018-Jul-10 15:00N 29°58' W 093°51'1 1.1
2018-Jul-10 14:30N 29°58' W 093°51'0 0.1
2018-Jul-10 14:00N 29°58' W 093°51'0 0.5
2018-Jul-10 13:30N 29°58' W 093°51'0 0.0
2018-Jul-10 13:00N 29°58' W 093°51'0 0.0
2018-Jul-10 12:30N 29°58' W 093°51'0 0.0
2018-Jul-10 12:00N 29°58' W 093°51'0 0.0
2018-Jul-10 11:30N 29°58' W 093°51'0 0.0
2018-Jul-10 11:00N 29°58' W 093°51'0 0.0
2018-Jul-10 10:30N 29°58' W 093°51'0 0.0
2018-Jul-10 10:00N 29°58' W 093°51'0 0.0
2018-Jul-10 09:30N 29°58' W 093°51'0 0.0
2018-Jul-10 09:00N 29°58' W 093°51'0 0.0
2018-Jul-10 08:30N 29°58' W 093°51'0 0.0
2018-Jul-10 08:00N 29°58' W 093°51'0 0.0
2018-Jul-10 07:30N 29°58' W 093°51'0 0.0
2018-Jul-10 07:00N 29°58' W 093°51'0 0.0
2018-Jul-10 06:30N 29°58' W 093°51'0 0.0
2018-Jul-10 06:00N 29°58' W 093°51'0 0.0
2018-Jul-10 05:30N 29°58' W 093°51'0 0.0
2018-Jul-10 05:00N 29°58' W 093°51'0 0.0
2018-Jul-10 04:30N 29°58' W 093°51'0 0.3
2018-Jul-10 04:00N 29°58' W 093°51'3 6.8
2018-Jul-10 03:30N 29°59' W 093°55'3 6.9
2018-Jul-10 03:00N 30°01' W 093°58'3 6.9
2018-Jul-10 02:30N 30°02' W 094°02'3 6.1
2018-Jul-10 02:00N 30°04' W 094°03'0 0.1
2018-Jul-10 01:30N 30°04' W 094°04'2 4.0
2018-Jul-10 01:00N 30°03' W 094°02'3 6.6
2018-Jul-10 00:30N 30°01' W 093°59'3 6.3
2018-Jul-10 00:00N 29°59' W 093°56'3 5.7
2018-Jul-09 23:30N 29°59' W 093°53'2 3.1
2018-Jul-09 23:00N 29°58' W 093°51'0 0.4
2018-Jul-09 22:31N 29°58' W 093°51'0 0.2
2018-Jul-09 21:59N 29°58' W 093°51'0 0.0
2018-Jul-09 21:29N 29°58' W 093°51'0 0.0
2018-Jul-09 20:59N 29°58' W 093°51'0 0.0
2018-Jul-09 20:29N 29°58' W 093°51'0 0.0
2018-Jul-09 19:59N 29°58' W 093°51'0 0.0
2018-Jul-09 19:29N 29°58' W 093°51'0 0.0
2018-Jul-09 18:59N 29°58' W 093°51'0 0.0
2018-Jul-09 18:29N 29°58' W 093°51'0 0.0
2018-Jul-09 17:59N 29°58' W 093°51'0 0.0
2018-Jul-09 17:29N 29°58' W 093°51'0 0.0
2018-Jul-09 17:00N 29°58' W 093°51'0 0.0
2018-Jul-09 16:30N 29°58' W 093°51'0 0.0
2018-Jul-09 16:00N 29°58' W 093°51'0 0.0
2018-Jul-09 15:30N 29°58' W 093°51'0 0.0
2018-Jul-09 15:00N 29°58' W 093°51'0 0.0
2018-Jul-09 14:30N 29°58' W 093°51'0 0.0
2018-Jul-09 14:00N 29°58' W 093°51'0 0.0
2018-Jul-09 13:30N 29°58' W 093°51'0 0.0
2018-Jul-09 13:00N 29°58' W 093°51'0 0.0
2018-Jul-09 12:30N 29°58' W 093°51'0 0.0
2018-Jul-09 12:00N 29°58' W 093°51'0 0.0
2018-Jul-09 11:30N 29°58' W 093°51'0 0.0
2018-Jul-09 11:00N 29°58' W 093°51'0 0.0
2018-Jul-09 10:30N 29°58' W 093°51'0 0.0
2018-Jul-09 10:00N 29°58' W 093°51'0 0.0
2018-Jul-09 09:30N 29°58' W 093°51'0 0.0
2018-Jul-09 09:01N 29°58' W 093°51'0 0.0
2018-Jul-09 08:30N 29°58' W 093°51'0 0.0
2018-Jul-09 08:00N 29°58' W 093°51'0 0.0
2018-Jul-09 07:30N 29°58' W 093°51'0 0.0
2018-Jul-09 07:00N 29°58' W 093°51'0 0.0
2018-Jul-09 06:30N 29°58' W 093°51'0 0.0
2018-Jul-09 06:00N 29°58' W 093°51'0 0.0
2018-Jul-09 05:30N 29°58' W 093°51'0 0.2
2018-Jul-09 05:00N 29°58' W 093°51'0 0.3
2018-Jul-09 04:30N 29°58' W 093°51'3 6.9
2018-Jul-09 04:00N 29°60' W 093°47'3 6.8
2018-Jul-09 03:30N 30°02' W 093°44'1 2.5
2018-Jul-09 03:00N 30°03' W 093°44'0 0.1
2018-Jul-09 02:30N 30°03' W 093°44'1 1.7
2018-Jul-09 02:00N 30°03' W 093°44'3 6.3
2018-Jul-09 01:30N 30°00' W 093°46'3 6.5
2018-Jul-09 01:00N 29°59' W 093°50'1 2.1
2018-Jul-09 00:30N 29°58' W 093°51'0 0.0
2018-Jul-09 00:00N 29°58' W 093°51'0 0.0
2018-Jul-08 23:30N 29°58' W 093°51'0 0.0
2018-Jul-08 23:01N 29°58' W 093°51'0 0.1
2018-Jul-08 22:31N 29°58' W 093°51'0 0.1
2018-Jul-08 21:59N 29°58' W 093°51'0 0.0
2018-Jul-08 21:29N 29°58' W 093°51'0 0.0
2018-Jul-08 20:59N 29°58' W 093°51'0 0.0
2018-Jul-08 20:29N 29°58' W 093°51'0 0.0
2018-Jul-08 19:58N 29°58' W 093°51'0 0.0
2018-Jul-08 19:28N 29°58' W 093°51'0 0.0
2018-Jul-08 18:58N 29°58' W 093°51'  

Dump ship's entire track history